Time;durP1;ratioP1;P1;durP2;ratioP2;P2;SDS_P1;SDS_P2;PMS_P1;PMS_P2;Temp;Humidity;BMP_temperature;BMP_pressure;BME280_temperature;BME280_humidity;BME280_pressure;Samples;Min_cycle;Max_cycle;Signal;HPM_P1;HPM_P2
2022/02/07 00:00:19;;;;;;;7.13;1.35;;;;;;;0.91;51.74;99971.38;5008068;28;20400;-73
2022/02/07 00:05:27;;;;;;;5.53;0.38;;;;;;;1.06;51.56;99994.31;5002766;28;20394;-73
2022/02/07 00:07:53;;;;;;;6.72;0.38;;;;;;;0.88;52.41;100002.28;5004753;28;20040;-72
2022/02/07 00:10:19;;;;;;;5.45;0.38;;;;;;;0.68;52.86;99988.00;5006359;28;20132;-72
2022/02/07 00:12:48;;;;;;;6.25;0.35;;;;;;;0.81;52.50;99990.38;5002493;28;20049;-72
2022/02/07 00:15:15;;;;;;;9.95;0.75;;;;;;;0.83;52.41;99989.47;5005561;28;20052;-72
2022/02/07 00:17:41;;;;;;;14.80;0.80;;;;;;;0.75;52.77;99999.03;5009278;28;20057;-73
2022/02/07 00:20:17;;;;;;;4.57;0.32;;;;;;;0.85;53.12;100002.34;5023194;28;20049;-73
2022/02/07 00:22:43;;;;;;;7.00;0.73;;;;;;;1.02;52.94;100018.38;5016342;28;20049;-73
2022/02/07 00:25:09;;;;;;;6.53;0.75;;;;;;;0.86;54.25;100037.50;5005455;28;20121;-73
2022/02/07 00:27:35;;;;;;;7.18;0.50;;;;;;;0.73;54.85;100057.38;5005498;28;20073;-74
2022/02/07 00:30:03;;;;;;;8.82;0.70;;;;;;;0.69;55.98;100051.41;5019616;28;20033;-73
2022/02/07 00:32:28;;;;;;;3.90;0.35;;;;;;;0.69;56.23;100069.41;5002190;28;20041;-72
2022/02/07 00:34:54;;;;;;;9.05;0.43;;;;;;;0.81;55.69;100062.41;5007771;28;20518;-73
2022/02/07 00:37:19;;;;;;;4.70;0.32;;;;;;;1.09;54.44;100068.91;5005312;28;20103;-73
2022/02/07 00:39:55;;;;;;;6.22;0.50;;;;;;;0.28;56.50;100072.47;5003173;28;20041;-73
2022/02/07 00:42:27;;;;;;;10.13;1.42;;;;;;;0.58;55.61;100071.25;5019755;28;20067;-73
2022/02/07 00:44:54;;;;;;;15.15;0.73;;;;;;;0.89;55.01;100081.19;5021700;28;20047;-73
2022/02/07 00:47:20;;;;;;;7.45;1.05;;;;;;;0.72;55.68;100080.53;5012754;28;20076;-73
2022/02/07 00:49:45;;;;;;;13.57;1.17;;;;;;;0.60;56.05;100082.38;5038163;28;20121;-73
2022/02/07 00:52:11;;;;;;;15.43;1.30;;;;;;;0.86;55.37;100094.09;5021620;28;23863;-73
2022/02/07 00:54:36;;;;;;;8.77;1.73;;;;;;;0.36;56.72;100100.66;5003925;28;20487;-73
2022/02/07 00:57:03;;;;;;;6.13;1.40;;;;;;;0.73;54.92;100103.69;5008335;28;20587;-73
2022/02/07 00:59:28;;;;;;;8.90;0.30;;;;;;;0.52;54.63;100109.03;5002720;28;20076;-72
2022/02/07 01:01:54;;;;;;;10.05;0.47;;;;;;;0.42;54.01;100118.59;5017184;28;20034;-72
2022/02/07 01:04:21;;;;;;;5.10;0.65;;;;;;;0.81;53.19;100126.72;5005760;28;20030;-73
2022/02/07 01:07:04;;;;;;;6.80;1.30;;;;;;;0.48;53.29;100146.81;5002414;28;20033;-73
2022/02/07 01:09:39;;;;;;;3.55;0.55;;;;;;;0.97;52.45;100148.84;4994606;28;20041;-72
2022/02/07 01:12:18;;;;;;;9.40;0.70;;;;;;;1.27;52.42;100163.03;5002598;28;20117;-72
2022/02/07 01:55:55;;;;;;;15.93;0.77;;;;;;;1.67;52.02;100277.63;5021252;28;20128;-76
2022/02/07 01:58:22;;;;;;;7.85;1.00;;;;;;;1.69;52.13;100283.59;5014442;28;20145;-75
2022/02/07 02:00:48;;;;;;;10.68;0.63;;;;;;;1.98;51.94;100285.81;5002101;28;20052;-75
2022/02/07 02:03:14;;;;;;;9.70;1.77;;;;;;;1.87;52.31;100288.53;5001906;28;20037;-74
2022/02/07 02:05:45;;;;;;;10.93;1.65;;;;;;;1.70;53.31;100306.75;5007292;28;20238;-72
2022/02/07 02:08:19;;;;;;;15.27;2.50;;;;;;;2.13;52.17;100305.34;5002975;28;20600;-73
2022/02/07 02:10:51;;;;;;;17.13;3.95;;;;;;;1.49;53.89;100313.03;5001000;28;20029;-73
2022/02/07 02:13:24;;;;;;;14.57;1.98;;;;;;;1.79;53.11;100321.25;5028711;28;20117;-72
2022/02/07 02:35:36;;;;;;;10.27;1.05;;;;;;;1.44;53.43;100401.50;5002812;28;20033;-73
2022/02/07 02:38:07;;;;;;;12.23;1.45;;;;;;;1.03;54.71;100424.13;5010207;28;20044;-73
2022/02/07 02:45:44;;;;;;;16.55;1.25;;;;;;;1.67;53.44;100429.63;5037603;28;20115;-73
2022/02/07 02:48:27;;;;;;;8.88;2.55;;;;;;;1.28;55.08;100427.38;5010125;28;20124;-74
2022/02/07 02:50:56;;;;;;;22.08;3.67;;;;;;;1.67;53.96;100435.63;4998100;28;20423;-73
2022/02/07 02:53:22;;;;;;;10.95;1.48;;;;;;;1.19;55.15;100452.34;5000713;28;20282;-73
2022/02/07 02:55:51;;;;;;;16.85;1.58;;;;;;;1.34;54.85;100470.22;5000345;28;20730;-73
2022/02/07 02:58:21;;;;;;;19.30;1.88;;;;;;;1.35;53.82;100471.97;5029347;28;20069;-73
2022/02/07 03:00:53;;;;;;;18.27;1.90;;;;;;;1.54;52.37;100484.69;5027462;28;20034;-74
2022/02/07 03:03:29;;;;;;;26.55;2.83;;;;;;;1.27;52.71;100508.06;5018887;28;20075;-73
2022/02/07 03:05:55;;;;;;;15.32;2.67;;;;;;;1.78;51.19;100517.97;5019524;28;20025;-73
2022/02/07 03:08:20;;;;;;;11.88;1.77;;;;;;;1.37;51.97;100506.25;4989472;28;20044;-72
2022/02/07 03:10:58;;;;;;;18.95;1.73;;;;;;;1.71;50.88;100524.06;5023965;28;20488;-73
2022/02/07 03:18:51;;;;;;;6.65;1.23;;;;;;;1.70;52.53;100556.69;4930877;28;20051;-74
2022/02/07 03:21:17;;;;;;;14.00;1.45;;;;;;;1.34;53.57;100570.66;4990097;28;20124;-74
2022/02/07 03:23:42;;;;;;;6.43;1.40;;;;;;;1.63;52.96;100579.94;4989363;28;20057;-74
2022/02/07 03:26:12;;;;;;;8.02;0.80;;;;;;;1.45;53.55;100589.50;5001561;28;20030;-74
2022/02/07 03:28:40;;;;;;;8.00;1.13;;;;;;;1.55;53.92;100595.47;5015325;28;20049;-74
2022/02/07 03:31:07;;;;;;;24.70;1.70;;;;;;;1.41;54.29;100615.28;5020790;28;20477;-72
2022/02/07 03:33:32;;;;;;;7.60;1.20;;;;;;;1.26;55.07;100608.47;5015473;28;20049;-72
2022/02/07 03:35:58;;;;;;;8.95;1.40;;;;;;;1.49;55.19;100645.28;5023877;28;20040;-72
2022/02/07 03:38:25;;;;;;;11.95;1.45;;;;;;;1.64;55.28;100649.50;5004658;28;20036;-71
2022/02/07 03:40:52;;;;;;;15.82;1.33;;;;;;;1.43;56.18;100647.88;5015619;28;20031;-72
2022/02/07 03:43:18;;;;;;;19.75;1.33;;;;;;;1.48;56.04;100653.91;4992454;28;20845;-72
2022/02/07 03:45:44;;;;;;;14.55;2.05;;;;;;;1.64;55.27;100666.66;5007341;28;20034;-75
2022/02/07 03:48:15;;;;;;;13.70;1.43;;;;;;;1.55;55.17;100672.75;4975137;28;20470;-73
2022/02/07 03:50:40;;;;;;;9.55;1.63;;;;;;;1.49;55.45;100683.91;5000866;28;20033;-73
2022/02/07 03:53:06;;;;;;;7.75;2.53;;;;;;;1.54;55.09;100689.03;4996497;28;20660;-72
2022/02/07 03:55:42;;;;;;;5.78;1.52;;;;;;;1.60;54.63;100691.59;5011593;28;20029;-72
2022/02/07 03:58:09;;;;;;;17.63;2.60;;;;;;;1.26;55.97;100706.31;5018288;28;20051;-73
2022/02/07 04:00:36;;;;;;;13.25;1.00;;;;;;;1.47;55.03;100706.25;5025769;28;20040;-73
2022/02/07 04:03:26;;;;;;;15.75;1.38;;;;;;;1.61;54.72;100713.91;4981773;28;20437;-73
2022/02/07 04:05:57;;;;;;;13.95;1.27;;;;;;;1.75;54.28;100726.69;5018790;28;20033;-72
2022/02/07 04:08:30;;;;;;;19.77;0.77;;;;;;;2.00;54.01;100727.44;5001047;28;20036;-73
2022/02/07 04:11:05;;;;;;;14.40;1.58;;;;;;;2.04;54.23;100743.72;5026184;28;22142;-72
2022/02/07 04:13:35;;;;;;;15.20;1.63;;;;;;;2.18;53.82;100752.22;5012828;28;20053;-73
2022/02/07 04:16:06;;;;;;;;;;;;;;;2.20;53.63;100765.97;5005479;28;20032;-73
2022/02/07 04:18:46;;;;;;;18.23;2.10;;;;;;;1.90;53.82;100767.84;4978953;28;19928;-73
2022/02/07 04:21:12;;;;;;;10.52;1.67;;;;;;;2.31;52.95;100774.50;5010390;28;20126;-71
2022/02/07 04:23:38;;;;;;;10.15;1.40;;;;;;;2.38;52.20;100780.47;5012045;28;20049;-73
2022/02/07 04:26:26;;;;;;;19.58;1.30;;;;;;;2.71;51.26;100784.50;5004724;28;20069;-73
2022/02/07 04:28:52;;;;;;;14.63;1.02;;;;;;;2.52;51.46;100799.25;4997505;28;20545;-74
2022/02/07 04:31:18;;;;;;;10.63;1.02;;;;;;;2.15;52.47;100793.50;4996550;28;20053;-74
2022/02/07 04:33:44;;;;;;;19.70;1.25;;;;;;;2.17;52.88;100814.97;4982083;28;20583;-75
2022/02/07 04:36:11;;;;;;;11.23;1.73;;;;;;;2.54;51.90;100823.31;5019571;28;20030;-72
2022/02/07 04:38:37;;;;;;;16.92;2.00;;;;;;;2.19;52.87;100835.59;5011356;28;20571;-73
2022/02/07 04:41:06;;;;;;;10.23;1.70;;;;;;;2.43;52.73;100850.94;5040884;28;20107;-75
2022/02/07 04:43:33;;;;;;;10.70;0.90;;;;;;;2.22;52.85;100851.94;5015055;28;20045;-74
2022/02/07 04:51:43;;;;;;;20.17;1.63;;;;;;;2.09;51.95;100882.06;5028612;28;20029;-73
2022/02/07 04:54:07;;;;;;;12.20;0.90;;;;;;;2.04;52.25;100895.81;4995714;28;20052;-72
2022/02/07 04:59:22;;;;;;;21.35;2.20;;;;;;;2.23;50.82;100914.66;5021292;28;20066;-76
2022/02/07 05:01:53;;;;;;;16.08;1.38;;;;;;;1.94;51.17;100924.22;5000178;28;20034;-74
2022/02/07 05:04:34;;;;;;;5.60;0.73;;;;;;;1.89;51.36;100923.38;5004381;28;20026;-75
2022/02/07 05:15:17;;;;;;;13.43;1.02;;;;;;;2.25;51.01;100959.38;5018793;28;20037;-73
2022/02/07 05:17:42;;;;;;;22.17;2.45;;;;;;;2.34;50.34;100965.34;5004956;28;20110;-73
2022/02/07 05:20:36;;;;;;;14.73;1.98;;;;;;;2.38;50.71;100983.34;5005220;28;20029;-73
2022/02/07 05:23:04;;;;;;;10.52;1.70;;;;;;;2.35;50.68;100986.81;5007095;28;20096;-73
2022/02/07 05:25:58;;;;;;;15.65;2.38;;;;;;;1.96;52.08;100998.13;4975197;28;20050;-73
2022/02/07 05:28:40;;;;;;;18.57;1.97;;;;;;;2.22;51.40;101005.78;4985272;28;20205;-74
2022/02/07 05:31:43;;;;;;;13.27;1.10;;;;;;;2.26;51.19;101021.22;4957955;28;20042;-73
2022/02/07 05:34:33;;;;;;;17.67;2.10;;;;;;;2.16;51.65;101032.47;5009664;28;20182;-71
2022/02/07 05:37:18;;;;;;;9.65;1.35;;;;;;;2.10;51.89;101041.06;4977498;28;20096;-71
2022/02/07 05:40:04;;;;;;;18.00;1.92;;;;;;;2.21;51.50;101045.34;5009719;28;20029;-71
2022/02/07 05:42:45;;;;;;;22.50;2.83;;;;;;;2.15;51.42;101051.34;5011983;28;20136;-71
2022/02/07 05:45:37;;;;;;;8.45;1.17;;;;;;;2.00;51.73;101056.53;5017186;28;20041;-70
2022/02/07 05:48:21;;;;;;;25.38;2.75;;;;;;;2.19;51.20;101063.38;5020249;28;20152;-69
2022/02/07 05:51:09;;;;;;;21.40;1.75;;;;;;;2.04;51.40;101073.72;5013607;28;20038;-69
2022/02/07 05:53:43;;;;;;;12.20;1.52;;;;;;;1.92;50.87;101083.19;5017879;28;20548;-69
2022/02/07 05:56:24;;;;;;;12.07;1.30;;;;;;;2.20;49.85;101084.88;5021434;28;20036;-73
2022/02/07 05:59:07;;;;;;;22.05;1.85;;;;;;;2.37;48.87;101087.44;5010546;28;20046;-73
2022/02/07 06:01:40;;;;;;;26.85;2.95;;;;;;;2.05;49.47;101088.34;5006375;28;20709;-73
2022/02/07 06:04:06;;;;;;;26.67;2.17;;;;;;;2.35;48.78;101101.19;5008464;28;20045;-71
2022/02/07 06:06:33;;;;;;;33.58;3.35;;;;;;;2.14;49.20;101102.06;5004678;28;20038;-71
2022/02/07 06:09:00;;;;;;;18.40;2.35;;;;;;;2.18;49.32;101108.09;5023168;28;20620;-71
2022/02/07 06:11:26;;;;;;;19.13;1.67;;;;;;;1.92;49.21;101116.69;5037750;28;20030;-71
2022/02/07 06:13:52;;;;;;;21.00;2.80;;;;;;;2.01;49.34;101130.47;5020410;28;20079;-72
2022/02/07 06:16:18;;;;;;;13.15;2.15;;;;;;;2.41;48.43;101143.31;5021244;28;20033;-70
2022/02/07 06:18:50;;;;;;;14.77;2.17;;;;;;;1.85;48.72;101129.59;4982046;28;20127;-74
2022/02/07 06:21:18;;;;;;;15.07;2.20;;;;;;;1.89;48.85;101146.78;5002600;28;20045;-73
2022/02/07 06:23:44;;;;;;;18.45;2.45;;;;;;;2.06;48.33;101151.94;5017532;28;20046;-75
2022/02/07 06:26:14;;;;;;;13.20;1.98;;;;;;;2.15;48.18;101144.19;5021411;28;20030;-76
2022/02/07 06:28:42;;;;;;;18.13;1.83;;;;;;;2.00;48.99;101141.63;5021529;28;20065;-74
2022/02/07 06:31:08;;;;;;;25.05;2.85;;;;;;;2.40;48.36;101164.78;5037311;28;20026;-74
2022/02/07 06:33:35;;;;;;;29.00;2.88;;;;;;;2.27;48.90;101170.00;5026432;28;20049;-76
2022/02/07 06:36:04;;;;;;;29.83;2.05;;;;;;;2.17;49.28;101172.56;5023551;28;20104;-74
2022/02/07 06:38:31;;;;;;;23.52;2.22;;;;;;;1.90;50.22;101180.28;5020678;28;20057;-71
2022/02/07 06:40:57;;;;;;;25.17;2.92;;;;;;;2.25;49.46;101184.59;5031655;28;20387;-72
2022/02/07 06:43:24;;;;;;;21.42;2.42;;;;;;;2.30;49.15;101198.34;5010154;28;20246;-73
2022/02/07 06:45:50;;;;;;;28.10;3.22;;;;;;;1.93;50.34;101202.66;5018886;28;20045;-74
2022/02/07 06:48:17;;;;;;;21.40;2.42;;;;;;;2.04;50.06;101210.38;5011263;28;20045;-73
2022/02/07 06:50:43;;;;;;;21.83;2.88;;;;;;;2.31;49.53;101220.72;5011595;28;20099;-73
2022/02/07 06:53:09;;;;;;;30.70;2.83;;;;;;;2.17;49.73;101221.56;5002637;28;20049;-72
2022/02/07 06:55:37;;;;;;;21.95;3.10;;;;;;;2.05;50.08;101237.91;5020691;28;20032;-73
2022/02/07 06:58:05;;;;;;;15.27;1.88;;;;;;;2.07;49.01;101249.06;5019928;28;20053;-69
2022/02/07 07:00:31;;;;;;;14.43;1.58;;;;;;;2.26;47.61;101271.41;5032003;28;20040;-74
2022/02/07 07:02:59;;;;;;;21.88;3.10;;;;;;;2.30;46.69;101275.72;4988247;28;20559;-70
2022/02/07 07:05:25;;;;;;;22.50;2.75;;;;;;;2.18;46.55;101278.31;5022807;28;20086;-74
2022/02/07 07:07:56;;;;;;;14.63;1.67;;;;;;;2.03;46.23;101283.44;4978501;28;20107;-69
2022/02/07 07:10:24;;;;;;;15.70;2.55;;;;;;;1.84;45.68;101292.81;4991343;28;20575;-71
2022/02/07 07:13:01;;;;;;;22.98;2.33;;;;;;;1.90;45.15;101283.41;4997840;28;20048;-71
2022/02/07 07:15:30;;;;;;;20.90;2.03;;;;;;;2.31;43.95;101295.53;5011188;28;20067;-71
2022/02/07 07:17:57;;;;;;;35.45;3.75;;;;;;;2.03;44.13;101314.38;4996635;28;20502;-72
2022/02/07 07:20:23;;;;;;;19.48;2.55;;;;;;;2.34;43.66;101320.47;5007926;28;20389;-72
2022/02/07 07:22:50;;;;;;;17.80;2.33;;;;;;;2.31;43.67;101335.91;4991016;28;20579;-74
2022/02/07 07:25:17;;;;;;;19.80;1.98;;;;;;;2.10;44.30;101342.75;5013102;28;20212;-73
2022/02/07 07:27:59;;;;;;;13.75;1.63;;;;;;;2.13;44.25;101347.94;4991514;28;20040;-72
2022/02/07 07:30:29;;;;;;;21.45;2.70;;;;;;;2.14;44.17;101353.94;5013293;28;20041;-73
2022/02/07 07:33:02;;;;;;;25.75;2.30;;;;;;;2.60;43.72;101369.53;5013850;28;20042;-74
2022/02/07 07:35:29;;;;;;;30.52;3.35;;;;;;;2.40;44.35;101360.88;5024464;28;20057;-72
2022/02/07 07:37:56;;;;;;;28.23;3.80;;;;;;;2.46;44.35;101371.22;4992224;28;20429;-72
2022/02/07 07:40:22;;;;;;;14.02;2.15;;;;;;;2.69;44.28;101384.13;5023722;28;20094;-72
2022/02/07 07:42:53;;;;;;;16.83;2.65;;;;;;;2.83;43.78;101381.59;5015816;28;20048;-72
2022/02/07 07:45:46;;;;;;;22.55;2.63;;;;;;;3.24;43.10;101383.28;5026856;28;20321;-74
2022/02/07 07:48:26;;;;;;;18.08;2.25;;;;;;;3.09;43.35;101385.03;5007452;28;20163;-72
2022/02/07 07:51:38;;;;;;;25.08;2.58;;;;;;;3.07;43.51;101386.75;5019071;28;20036;-74
2022/02/07 07:54:51;;;;;;;31.67;2.10;;;;;;;3.41;43.09;101401.38;4953198;28;20606;-74
2022/02/07 08:02:54;;;;;;;20.98;3.28;;;;;;;2.76;45.19;101430.63;5001090;28;20045;-73
2022/02/07 08:05:52;;;;;;;;;;;;;;;2.70;45.11;101434.91;5027291;28;20029;-73
2022/02/07 08:08:31;;;;;;;24.25;1.77;;;;;;;2.98;44.86;101438.41;5000596;28;20378;-73
2022/02/07 08:13:33;;;;;;;18.38;2.95;;;;;;;3.53;44.47;101443.56;5021638;28;20104;-72
2022/02/07 08:16:05;;;;;;;33.15;3.53;;;;;;;4.36;42.82;101453.66;5029896;28;20214;-72
2022/02/07 08:18:31;;;;;;;25.65;3.28;;;;;;;4.54;42.14;101455.28;4979493;28;20553;-74
2022/02/07 08:20:56;;;;;;;27.15;2.65;;;;;;;4.19;42.89;101476.16;5010469;28;20461;-73
2022/02/07 08:23:21;;;;;;;17.67;2.25;;;;;;;2.83;45.69;101492.59;4989719;28;20622;-73
2022/02/07 08:25:47;;;;;;;23.75;3.42;;;;;;;2.77;47.04;101508.94;5004600;28;20035;-72
2022/02/07 08:28:13;;;;;;;7.03;1.00;;;;;;;2.14;48.97;101514.69;4979828;28;20561;-72
2022/02/07 08:30:38;;;;;;;6.57;0.80;;;;;;;2.17;47.15;101503.53;5007339;28;20034;-72
2022/02/07 08:33:03;;;;;;;8.65;1.40;;;;;;;1.95;47.73;101497.38;4993589;28;21178;-73
2022/02/07 08:35:30;;;;;;;10.27;1.02;;;;;;;1.96;47.85;101518.91;5012832;28;20131;-73
2022/02/07 08:37:59;;;;;;;6.55;0.75;;;;;;;2.45;46.43;101514.84;5023266;28;20065;-73
2022/02/07 08:40:26;;;;;;;6.70;0.57;;;;;;;2.38;46.13;101530.28;5009245;28;20450;-72
2022/02/07 08:42:54;;;;;;;9.13;1.23;;;;;;;2.63;45.01;101534.69;5019357;28;20120;-72
2022/02/07 08:45:21;;;;;;;9.50;0.50;;;;;;;2.77;44.80;101534.75;5022284;28;20497;-72
2022/02/07 08:47:47;;;;;;;5.20;0.57;;;;;;;2.75;44.83;101542.47;4983812;28;20095;-72
2022/02/07 08:50:13;;;;;;;8.90;1.20;;;;;;;3.99;42.79;101552.09;5001119;28;20026;-72
2022/02/07 08:52:43;;;;;;;12.70;1.45;;;;;;;3.87;43.38;101548.66;4974354;28;20390;-72
2022/02/07 08:55:13;;;;;;;13.80;1.90;;;;;;;4.79;41.97;101546.66;5017785;28;20884;-73
2022/02/07 08:57:43;;;;;;;9.57;1.50;;;;;;;5.69;40.47;101569.41;4985435;28;20073;-72
2022/02/07 09:00:24;;;;;;;14.27;1.52;;;;;;;5.98;40.15;101572.59;4999547;28;20625;-74
2022/02/07 09:05:35;;;;;;;18.80;1.98;;;;;;;6.65;39.25;101577.97;5002638;28;20191;-74
2022/02/07 09:08:20;;;;;;;20.95;2.70;;;;;;;6.38;39.93;101582.59;4987578;28;20052;-74
2022/02/07 09:10:48;;;;;;;14.63;2.45;;;;;;;6.81;39.48;101584.66;5007417;28;20037;-73
2022/02/07 09:13:14;;;;;;;23.23;2.15;;;;;;;6.91;39.48;101591.47;4990855;28;20342;-73
2022/02/07 09:15:53;;;;;;;12.93;2.28;;;;;;;6.47;39.83;101605.88;5006390;28;20037;-73
2022/02/07 09:18:18;;;;;;;23.30;2.72;;;;;;;6.26;40.61;101627.69;4994667;28;20048;-73
2022/02/07 09:20:45;;;;;;;15.40;2.50;;;;;;;5.73;42.20;101635.97;5012146;28;20422;-73
2022/02/07 09:23:11;;;;;;;18.27;2.10;;;;;;;5.83;41.61;101637.59;5023086;28;20091;-73
2022/02/07 09:25:37;;;;;;;15.40;3.42;;;;;;;5.84;41.55;101647.13;5025229;28;20041;-73
2022/02/07 09:28:03;;;;;;;23.08;2.42;;;;;;;5.96;41.34;101653.94;5008483;28;20045;-72
2022/02/07 09:30:28;;;;;;;21.92;3.05;;;;;;;6.03;41.58;101656.44;5012693;28;20025;-72
2022/02/07 09:32:54;;;;;;;18.92;2.45;;;;;;;5.61;41.49;101648.16;5013399;28;20534;-73
2022/02/07 09:35:20;;;;;;;19.63;3.15;;;;;;;5.66;41.20;101656.75;5023060;28;20041;-73
2022/02/07 09:37:46;;;;;;;31.20;2.28;;;;;;;6.01;41.15;101653.00;4989305;28;20402;-74
2022/02/07 09:40:14;;;;;;;25.42;2.35;;;;;;;5.63;41.24;101666.25;5013386;28;20421;-74
2022/02/07 09:42:42;;;;;;;27.50;2.15;;;;;;;6.27;39.64;101657.13;4995431;28;20057;-74
2022/02/07 09:45:18;;;;;;;13.85;3.25;;;;;;;6.86;38.93;101660.84;5022021;28;20045;-74
2022/02/07 09:47:45;;;;;;;27.13;3.58;;;;;;;5.45;41.14;101673.28;4995758;28;20403;-74
2022/02/07 09:50:11;;;;;;;12.45;2.25;;;;;;;4.65;42.39;101677.91;5021134;28;20501;-74
2022/02/07 09:52:37;;;;;;;21.33;2.22;;;;;;;4.77;42.88;101683.06;4989240;28;20187;-73
2022/02/07 09:55:05;;;;;;;16.15;2.65;;;;;;;4.26;44.05;101741.81;5021419;28;20387;-73
2022/02/07 09:57:31;;;;;;;18.55;2.08;;;;;;;2.49;51.12;101776.38;4997631;28;20048;-74
2022/02/07 10:00:03;;;;;;;11.38;0.65;;;;;;;1.89;53.96;101761.19;5022719;28;20060;-73
2022/02/07 10:02:38;;;;;;;3.47;0.45;;;;;;;1.96;54.00;101740.63;5036650;28;21958;-73
2022/02/07 10:05:10;;;;;;;9.57;0.43;;;;;;;1.89;53.18;101747.44;5023086;28;20120;-73
2022/02/07 10:07:49;;;;;;;8.48;0.38;;;;;;;1.35;53.23;101741.66;5025859;28;20052;-73
2022/02/07 10:10:37;;;;;;;3.22;0.22;;;;;;;1.62;52.12;101745.44;5023543;28;20591;-73
2022/02/07 10:15:53;;;;;;;7.03;0.30;;;;;;;2.99;48.14;101747.44;5020946;28;20049;-73
2022/02/07 10:35:07;;;;;;;11.38;1.30;;;;;;;5.23;43.50;101762.41;5014401;28;20108;-74
2022/02/07 10:37:56;;;;;;;9.23;0.90;;;;;;;5.22;42.94;101761.53;5008699;28;20053;-73
2022/02/07 10:41:06;;;;;;;14.05;1.35;;;;;;;5.56;43.33;101752.75;5038271;28;20449;-73
2022/02/07 10:43:44;;;;;;;15.43;1.05;;;;;;;5.46;42.89;101770.09;5011425;28;20045;-74
2022/02/07 10:48:41;;;;;;;13.32;1.25;;;;;;;5.75;43.51;101789.81;4975183;28;20056;-74
2022/02/07 10:51:22;;;;;;;15.25;1.30;;;;;;;5.89;42.56;101788.03;5004600;28;20080;-73
2022/02/07 10:53:54;;;;;;;9.98;1.17;;;;;;;6.36;41.33;101784.28;4978590;28;20046;-73
2022/02/07 10:56:22;;;;;;;9.68;1.70;;;;;;;6.67;41.63;101791.81;5003877;28;20032;-74
2022/02/07 10:58:51;;;;;;;11.63;1.33;;;;;;;5.85;42.42;101797.56;5021623;28;20068;-73
2022/02/07 11:04:06;;;;;;;12.07;1.33;;;;;;;5.98;41.85;101802.69;5004301;28;20120;-74
2022/02/07 11:06:34;;;;;;;15.13;1.40;;;;;;;6.15;42.75;101805.16;5008962;28;20597;-73
2022/02/07 11:11:45;;;;;;;19.85;2.55;;;;;;;6.95;41.61;101805.41;5026983;28;20036;-73
2022/02/07 11:27:31;;;;;;;23.75;2.35;;;;;;;4.83;46.11;101803.91;5021271;28;20283;-74
2022/02/07 11:29:57;;;;;;;17.27;2.65;;;;;;;4.13;47.46;101805.63;5022434;28;20147;-74
2022/02/07 11:32:51;;;;;;;20.13;2.80;;;;;;;4.59;46.28;101841.06;5021500;28;20041;-74
2022/02/07 11:35:48;;;;;;;8.68;1.10;;;;;;;5.17;42.68;101843.63;5019527;28;20635;-73
2022/02/07 11:38:17;;;;;;;9.60;1.52;;;;;;;5.69;42.03;101842.63;4994731;28;20045;-73
2022/02/07 11:40:56;;;;;;;7.97;0.85;;;;;;;5.59;41.52;101843.50;5018948;28;20234;-73
2022/02/07 11:43:25;;;;;;;6.35;0.93;;;;;;;6.14;40.82;101858.81;4987078;28;20033;-73
2022/02/07 11:46:13;;;;;;;4.68;0.43;;;;;;;5.67;40.85;101860.75;5019067;28;20086;-73
2022/02/07 11:48:45;;;;;;;9.93;0.80;;;;;;;5.71;41.20;101860.78;5005968;28;20140;-73
2022/02/07 11:51:20;;;;;;;7.60;0.73;;;;;;;5.22;42.36;101872.13;5002344;28;20030;-73
2022/02/07 11:53:49;;;;;;;8.63;1.00;;;;;;;6.16;41.37;101871.81;4982186;28;20081;-73
2022/02/07 11:56:46;;;;;;;14.18;1.20;;;;;;;6.57;41.37;101881.94;5001267;28;20060;-75
2022/02/07 11:59:39;;;;;;;9.38;1.23;;;;;;;6.62;41.39;101894.88;5001401;28;20676;-73
2022/02/07 12:02:16;;;;;;;17.67;1.42;;;;;;;6.79;40.69;101900.84;4984117;28;20051;-74
2022/02/07 12:04:45;;;;;;;14.43;1.58;;;;;;;6.41;41.70;101901.97;5031093;28;20037;-73
2022/02/07 12:07:11;;;;;;;20.75;0.80;;;;;;;6.38;42.49;101901.13;4993146;28;20480;-73
2022/02/07 12:10:06;;;;;;;10.95;1.50;;;;;;;5.83;42.93;101905.66;4996681;28;20034;-73
2022/02/07 12:12:38;;;;;;;15.15;1.58;;;;;;;6.18;42.80;101903.81;4978501;28;20045;-73
2022/02/07 12:15:16;;;;;;;12.55;1.42;;;;;;;6.26;41.66;101902.91;5022151;28;20041;-74
2022/02/07 12:17:50;;;;;;;14.50;1.48;;;;;;;4.79;42.57;101909.25;5010476;28;20511;-73
2022/02/07 12:20:18;;;;;;;7.15;0.47;;;;;;;5.25;41.86;101914.44;5003493;28;20654;-73
2022/02/07 12:22:56;;;;;;;13.25;1.30;;;;;;;4.80;42.34;101892.00;4985456;28;20515;-73
2022/02/07 12:25:29;;;;;;;22.85;1.33;;;;;;;5.02;42.60;101916.22;5024422;28;20070;-73
2022/02/07 12:27:58;;;;;;;14.52;1.08;;;;;;;4.98;43.19;101911.88;4994721;28;20052;-73
2022/02/07 12:30:31;;;;;;;20.77;1.98;;;;;;;5.37;42.67;101923.06;5017505;28;20042;-73
2022/02/07 12:33:03;;;;;;;17.63;1.30;;;;;;;5.62;41.69;101929.09;4975355;28;20045;-74
2022/02/07 12:35:29;;;;;;;11.10;1.35;;;;;;;5.63;41.82;101925.63;4989173;28;20042;-73
2022/02/07 12:37:56;;;;;;;16.02;1.70;;;;;;;5.07;42.62;101914.47;4959589;28;20140;-73
2022/02/07 12:40:21;;;;;;;11.20;0.90;;;;;;;4.85;43.37;101921.34;4998242;28;20034;-73
2022/02/07 12:42:50;;;;;;;12.45;1.35;;;;;;;5.48;42.82;101934.31;5002712;28;20529;-73
2022/02/07 12:45:17;;;;;;;6.97;1.02;;;;;;;5.49;42.87;101922.22;5037691;28;20037;-73
2022/02/07 12:47:49;;;;;;;9.57;0.85;;;;;;;4.41;43.03;101945.44;5004694;28;20048;-74
2022/02/07 12:50:17;;;;;;;5.07;0.75;;;;;;;4.60;41.85;101938.56;5017425;28;20073;-73
2022/02/07 12:52:43;;;;;;;7.82;1.50;;;;;;;4.92;41.51;101950.72;5004075;28;20128;-73
2022/02/07 12:55:14;;;;;;;8.80;0.88;;;;;;;5.44;40.69;101961.13;5019376;28;20422;-73
2022/02/07 12:57:45;;;;;;;9.43;0.70;;;;;;;4.93;41.44;101974.06;4985005;28;20053;-73
2022/02/07 13:00:13;;;;;;;6.38;0.75;;;;;;;5.74;41.97;101987.88;5009552;28;20312;-74
2022/02/07 13:02:43;;;;;;;11.25;1.60;;;;;;;5.78;39.45;101984.41;4978678;28;20777;-73
2022/02/07 13:05:13;;;;;;;6.32;1.17;;;;;;;5.53;40.52;101993.97;5030147;28;20033;-73
2022/02/07 13:07:45;;;;;;;8.20;0.50;;;;;;;5.59;39.93;102000.00;4995424;28;20649;-73
2022/02/07 13:10:18;;;;;;;12.70;0.70;;;;;;;4.92;40.99;101997.38;5008381;28;20116;-73
2022/02/07 13:15:25;;;;;;;10.60;0.65;;;;;;;5.98;39.79;101985.22;5018907;28;20136;-73
2022/02/07 13:17:58;;;;;;;14.93;1.42;;;;;;;5.87;39.25;101992.16;4984382;28;20056;-73
2022/02/07 13:20:25;;;;;;;13.85;1.10;;;;;;;6.25;39.44;101993.78;5007616;28;20037;-72
2022/02/07 13:23:12;;;;;;;8.05;0.93;;;;;;;5.84;40.16;101997.38;4985737;28;21201;-73
2022/02/07 13:25:39;;;;;;;7.93;1.17;;;;;;;6.34;39.53;101998.94;5020400;28;20102;-73
2022/02/07 13:28:09;;;;;;;9.60;1.10;;;;;;;5.66;40.25;102004.31;4981801;28;20510;-74
2022/02/07 13:30:39;;;;;;;20.15;1.60;;;;;;;6.28;39.94;102027.53;5005736;28;20080;-73
2022/02/07 13:33:04;;;;;;;9.35;0.85;;;;;;;6.03;40.52;102032.75;4973004;28;20060;-73
2022/02/07 13:35:37;;;;;;;6.53;1.30;;;;;;;6.27;40.72;102038.78;5005926;28;20041;-73
2022/02/07 13:38:06;;;;;;;25.48;2.90;;;;;;;6.17;41.13;102042.25;4981209;28;20589;-73
2022/02/07 13:40:44;;;;;;;8.05;1.08;;;;;;;6.25;41.74;102037.91;5022691;28;20508;-72
2022/02/07 13:43:19;;;;;;;10.52;2.00;;;;;;;6.35;41.55;102026.66;4977511;28;20431;-73
2022/02/07 13:45:48;;;;;;;12.95;1.88;;;;;;;6.87;40.30;102023.78;5011955;28;20042;-73
2022/02/07 13:48:17;;;;;;;14.23;1.10;;;;;;;7.27;40.43;102025.25;4975675;28;20599;-73
2022/02/07 13:50:46;;;;;;;20.88;2.00;;;;;;;6.55;40.23;102017.91;5001322;28;20037;-74
2022/02/07 13:53:13;;;;;;;13.27;1.30;;;;;;;6.32;40.33;102020.59;4993276;28;20074;-73
2022/02/07 13:55:40;;;;;;;6.15;0.77;;;;;;;6.52;39.86;102026.56;5011982;28;20040;-76
2022/02/07 13:58:19;;;;;;;9.10;0.73;;;;;;;6.13;40.74;102030.13;4998402;28;20053;-73
2022/02/07 14:00:45;;;;;;;14.52;1.27;;;;;;;7.42;39.06;102038.16;5004516;28;20034;-73
2022/02/07 14:03:21;;;;;;;13.90;1.27;;;;;;;6.81;39.84;102039.41;5003052;28;20455;-73
2022/02/07 14:06:22;;;;;;;9.25;0.93;;;;;;;6.17;40.06;102042.25;5022495;28;20099;-74
2022/02/07 14:08:55;;;;;;;10.27;0.90;;;;;;;6.41;39.17;102033.56;4933471;28;20054;-74
2022/02/07 14:11:30;;;;;;;12.00;0.90;;;;;;;6.86;38.12;102035.06;5006857;28;20215;-73
2022/02/07 14:13:59;;;;;;;11.07;0.65;;;;;;;6.05;39.41;102051.78;5004829;28;20716;-73